createdAt,value
2018-05-03T00:02:11.392Z,49.30
2018-05-03T00:04:39.726Z,49.00
2018-05-03T00:07:07.972Z,49.20
2018-05-03T00:09:36.511Z,49.80
2018-05-03T00:12:04.775Z,51.40
2018-05-03T00:14:33.016Z,51.00
2018-05-03T00:17:01.258Z,50.90
2018-05-03T00:19:29.696Z,51.70
2018-05-03T00:21:57.938Z,51.70
2018-05-03T00:24:26.174Z,52.00
2018-05-03T00:26:54.436Z,52.30
2018-05-03T00:29:22.677Z,52.70
2018-05-03T00:31:51.011Z,53.20
2018-05-03T00:34:19.265Z,53.20
2018-05-03T00:36:47.503Z,52.10
2018-05-03T00:39:16.060Z,51.50
2018-05-03T00:41:44.824Z,51.30
2018-05-03T00:44:13.189Z,52.30
2018-05-03T00:46:41.459Z,53.50
2018-05-03T00:49:09.932Z,53.30
2018-05-03T00:51:38.935Z,54.50
2018-05-03T00:54:27.763Z,54.50
2018-05-03T00:56:56.006Z,52.10
2018-05-03T00:59:24.320Z,52.40
2018-05-03T01:01:53.628Z,54.20
2018-05-03T01:04:22.728Z,54.90
2018-05-03T01:06:50.960Z,54.80
2018-05-03T01:09:23.371Z,55.50
2018-05-03T01:11:52.379Z,54.20
2018-05-03T01:14:21.428Z,53.20
2018-05-03T01:16:49.683Z,53.10
2018-05-03T01:19:17.918Z,52.90
2018-05-03T01:21:46.161Z,52.90
2018-05-03T01:24:14.612Z,52.50
2018-05-03T01:26:42.851Z,52.60
2018-05-03T01:29:11.087Z,53.10
2018-05-03T01:31:39.351Z,52.70
2018-05-03T01:34:07.587Z,53.30
2018-05-03T01:36:35.839Z,54.70
2018-05-03T01:39:04.099Z,53.80
2018-05-03T01:41:33.539Z,53.30
2018-05-03T01:44:02.542Z,52.60
2018-05-03T01:46:30.951Z,52.50
2018-05-03T01:48:59.283Z,52.60
2018-05-03T01:51:28.288Z,52.70
2018-05-03T01:53:57.314Z,52.40
2018-05-03T01:56:25.556Z,52.40
2018-05-03T01:58:54.067Z,54.60
2018-05-03T02:01:22.763Z,55.60
2018-05-03T02:03:51.815Z,54.90
2018-05-03T02:06:20.068Z,56.20
2018-05-03T02:08:48.724Z,56.90
2018-05-03T02:11:17.204Z,55.00
2018-05-03T02:13:45.811Z,56.80
2018-05-03T02:16:14.075Z,55.60
2018-05-03T02:18:42.320Z,56.80
2018-05-03T02:21:10.675Z,56.10
2018-05-03T02:23:39.712Z,57.30
2018-05-03T02:26:07.944Z,57.30
2018-05-03T02:28:36.187Z,56.70
2018-05-03T02:31:04.849Z,56.10
2018-05-03T02:33:33.972Z,56.00
2018-05-03T02:36:02.213Z,56.90
2018-05-03T02:38:30.599Z,56.50
2018-05-03T02:40:58.835Z,58.30
2018-05-03T02:43:27.320Z,60.70
2018-05-03T02:45:56.352Z,57.40
2018-05-03T02:48:24.699Z,57.40
2018-05-03T02:50:53.704Z,57.50
2018-05-03T02:53:22.409Z,57.50
2018-05-03T02:55:50.648Z,59.90
2018-05-03T02:58:30.707Z,59.70
2018-05-03T03:01:27.313Z,59.70
2018-05-03T03:04:12.982Z,60.00
2018-05-03T03:06:58.764Z,59.80
2018-05-03T03:13:17.191Z,57.10
2018-05-03T03:16:02.999Z,57.10
2018-05-03T03:18:48.667Z,58.40
2018-05-03T03:21:34.336Z,61.30
2018-05-03T03:24:19.952Z,59.80
2018-05-03T03:27:05.758Z,62.20
2018-05-03T03:29:45.763Z,60.90
2018-05-03T03:32:25.718Z,60.50
2018-05-03T03:38:26.911Z,57.70
2018-05-03T03:41:06.865Z,57.80
2018-05-03T03:43:47.753Z,57.50
2018-05-03T03:46:16.093Z,57.40
2018-05-03T03:48:45.107Z,57.30
2018-05-03T03:51:13.374Z,57.30
2018-05-03T03:53:41.607Z,57.00
2018-05-03T03:56:09.853Z,57.60
2018-05-03T03:58:38.284Z,58.60
2018-05-03T04:01:06.526Z,58.70
2018-05-03T04:03:34.789Z,59.10
2018-05-03T04:06:03.474Z,58.80
2018-05-03T04:08:31.713Z,59.10
2018-05-03T04:10:59.951Z,57.50
2018-05-03T04:13:28.612Z,57.40
2018-05-03T04:15:56.855Z,57.70
2018-05-03T04:18:36.988Z,57.50
2018-05-03T04:21:17.080Z,57.40
2018-05-03T04:24:07.319Z,58.30
2018-05-03T04:26:35.556Z,57.50
2018-05-03T04:29:03.858Z,57.40
2018-05-03T04:31:32.114Z,57.70
2018-05-03T04:34:00.497Z,57.30
2018-05-03T04:36:28.736Z,58.80
2018-05-03T04:38:56.999Z,58.30
2018-05-03T04:41:25.247Z,57.10
2018-05-03T04:43:53.829Z,57.10
2018-05-03T04:46:22.421Z,57.60
2018-05-03T04:48:50.653Z,57.00
2018-05-03T04:51:18.897Z,56.40
2018-05-03T04:53:47.161Z,56.20
2018-05-03T04:56:15.397Z,56.00
2018-05-03T04:58:43.659Z,56.40
2018-05-03T05:01:13.026Z,56.30
2018-05-03T05:03:41.504Z,56.10
2018-05-03T05:06:09.727Z,56.20
2018-05-03T05:08:38.307Z,56.50
2018-05-03T05:11:06.552Z,56.90
2018-05-03T05:13:34.798Z,56.90
2018-05-03T05:16:03.066Z,56.60
2018-05-03T05:18:31.303Z,56.50
2018-05-03T05:20:59.548Z,57.40
2018-05-03T05:23:27.819Z,58.70
2018-05-03T05:25:56.147Z,57.70
2018-05-03T05:28:24.432Z,58.00
2018-05-03T05:30:52.879Z,58.00
2018-05-03T05:33:23.698Z,58.20
2018-05-03T05:35:53.283Z,58.60
2018-05-03T05:38:21.551Z,58.00
2018-05-03T05:40:49.799Z,58.30
2018-05-03T05:43:18.115Z,58.40
2018-05-03T05:45:46.596Z,58.10
2018-05-03T05:48:14.847Z,58.00
2018-05-03T05:50:43.523Z,58.20
2018-05-03T05:53:12.499Z,58.60
2018-05-03T05:55:41.815Z,58.90
2018-05-03T05:58:10.055Z,59.00
2018-05-03T06:00:38.418Z,58.70
2018-05-03T06:03:06.651Z,58.90
2018-05-03T06:05:34.896Z,58.60
2018-05-03T06:08:03.744Z,58.20
2018-05-03T06:10:31.979Z,58.30
2018-05-03T06:13:00.223Z,57.70
2018-05-03T06:15:29.576Z,56.80
2018-05-03T06:17:57.832Z,56.70
2018-05-03T06:20:26.461Z,57.00
2018-05-03T06:22:54.795Z,56.80
2018-05-03T06:25:23.043Z,56.00
2018-05-03T06:27:52.068Z,55.00
2018-05-03T06:30:20.339Z,54.90
2018-05-03T06:32:48.603Z,53.90
2018-05-03T06:35:17.216Z,53.60
2018-05-03T06:37:46.033Z,53.40
2018-05-03T06:40:14.271Z,53.10
2018-05-03T06:42:42.631Z,53.10
2018-05-03T06:45:11.683Z,52.80
2018-05-03T06:47:40.060Z,52.70
2018-05-03T06:50:08.300Z,52.60
2018-05-03T06:52:36.580Z,52.80
2018-05-03T06:55:04.827Z,52.50
2018-05-03T06:57:33.849Z,52.60
2018-05-03T07:00:02.693Z,52.40
2018-05-03T07:02:31.864Z,53.10
2018-05-03T07:05:00.363Z,53.10
2018-05-03T07:07:28.608Z,52.50
2018-05-03T07:09:56.880Z,52.50
2018-05-03T07:12:25.092Z,52.60
2018-05-03T07:14:53.370Z,52.60
2018-05-03T07:17:21.611Z,52.30
2018-05-03T07:19:50.838Z,52.40
2018-05-03T07:22:19.257Z,52.10
2018-05-03T07:24:47.500Z,52.20
2018-05-03T07:27:15.743Z,52.20
2018-05-03T07:29:44.008Z,52.30
2018-05-03T07:32:12.252Z,52.40
2018-05-03T07:34:40.562Z,52.10
2018-05-03T07:37:09.716Z,52.10
2018-05-03T07:39:37.973Z,52.10
2018-05-03T07:42:06.252Z,51.80
2018-05-03T07:44:34.604Z,51.70
2018-05-03T07:47:02.845Z,51.90
2018-05-03T07:49:32.241Z,51.70
2018-05-03T07:52:01.267Z,52.00
2018-05-03T07:54:29.543Z,52.00
2018-05-03T07:56:57.788Z,52.10
2018-05-03T07:59:26.062Z,52.20
2018-05-03T08:01:55.074Z,52.50
2018-05-03T08:04:24.880Z,52.00
2018-05-03T08:06:53.447Z,51.90
2018-05-03T08:09:22.708Z,50.80
2018-05-03T08:11:50.947Z,50.80
2018-05-03T08:14:19.208Z,50.80
2018-05-03T08:16:48.360Z,51.30
2018-05-03T08:19:16.598Z,51.60
2018-05-03T08:21:44.871Z,50.30
2018-05-03T08:24:13.883Z,49.60
2018-05-03T08:26:42.123Z,50.20
2018-05-03T08:29:11.575Z,49.10
2018-05-03T08:31:39.827Z,49.00
2018-05-03T08:34:08.466Z,49.30
2018-05-03T08:36:36.712Z,48.60
2018-05-03T08:39:05.867Z,48.30
2018-05-03T08:41:34.149Z,47.80
2018-05-03T08:44:02.428Z,47.20
2018-05-03T08:46:31.427Z,47.60
2018-05-03T08:48:59.676Z,47.50
2018-05-03T08:51:28.831Z,47.00
2018-05-03T08:53:57.068Z,47.40
2018-05-03T08:56:25.302Z,48.10
2018-05-03T08:58:53.567Z,46.30
2018-05-03T09:01:21.864Z,46.20
2018-05-03T09:03:50.056Z,47.40
2018-05-03T09:06:18.319Z,46.80
2018-05-03T09:08:46.555Z,46.70
2018-05-03T09:11:14.801Z,47.00
2018-05-03T09:13:43.761Z,45.80
2018-05-03T09:16:12.000Z,45.10
2018-05-03T09:18:40.408Z,43.90
2018-05-03T09:21:08.743Z,44.60
2018-05-03T09:23:36.995Z,44.00
2018-05-03T09:26:05.284Z,44.90
2018-05-03T09:28:33.547Z,43.30
2018-05-03T09:31:01.801Z,44.40
2018-05-03T09:33:30.036Z,45.10
2018-05-03T09:35:59.352Z,43.90
2018-05-03T09:38:27.606Z,42.80
2018-05-03T09:40:55.839Z,43.50
2018-05-03T09:43:24.097Z,42.70
2018-05-03T09:45:52.337Z,41.30
2018-05-03T09:48:20.648Z,41.90
2018-05-03T09:50:48.908Z,41.50
2018-05-03T09:53:17.647Z,43.10
2018-05-03T09:55:45.893Z,41.90
2018-05-03T09:58:14.735Z,42.20
2018-05-03T10:00:43.580Z,42.10
2018-05-03T10:03:11.823Z,43.20
2018-05-03T10:05:40.520Z,41.50
2018-05-03T10:08:08.759Z,42.30
2018-05-03T10:10:36.995Z,43.20
2018-05-03T10:13:05.264Z,41.90
2018-05-03T10:15:33.499Z,40.90
2018-05-03T10:18:01.801Z,41.70
2018-05-03T10:20:30.228Z,40.90
2018-05-03T10:22:58.559Z,41.30
2018-05-03T10:25:26.804Z,41.10
2018-05-03T10:27:55.168Z,41.50
2018-05-03T10:30:23.415Z,41.90
2018-05-03T10:32:51.650Z,40.60
2018-05-03T10:35:19.921Z,41.80
2018-05-03T10:37:48.153Z,39.60
2018-05-03T10:40:16.391Z,39.80
2018-05-03T10:42:44.791Z,38.80
2018-05-03T10:45:13.009Z,39.80
2018-05-03T10:47:42.893Z,40.10
2018-05-03T10:50:11.156Z,40.10
2018-05-03T10:52:39.399Z,39.50
2018-05-03T10:55:08.071Z,40.60
2018-05-03T10:57:37.115Z,38.90
2018-05-03T11:00:05.359Z,38.90
2018-05-03T11:02:33.723Z,36.90
2018-05-03T11:05:02.228Z,37.80
2018-05-03T11:07:30.733Z,36.60
2018-05-03T11:09:58.955Z,36.70
2018-05-03T11:12:27.981Z,38.20
2018-05-03T11:14:56.227Z,38.20
2018-05-03T11:17:24.671Z,36.70
2018-05-03T11:19:53.080Z,38.10
2018-05-03T11:22:21.388Z,37.60
2018-05-03T11:24:49.635Z,35.40
2018-05-03T11:27:18.279Z,36.70
2018-05-03T11:29:46.595Z,33.30
2018-05-03T11:32:15.597Z,32.00
2018-05-03T11:34:44.678Z,33.10
2018-05-03T11:37:12.907Z,33.10
2018-05-03T11:39:41.139Z,34.20
2018-05-03T11:42:10.428Z,30.00
2018-05-03T11:44:38.663Z,30.00
2018-05-03T11:47:06.911Z,31.00
2018-05-03T11:49:35.517Z,30.60
2018-05-03T11:52:03.755Z,31.40
2018-05-03T11:54:31.999Z,29.60
2018-05-03T11:57:00.391Z,29.20
2018-05-03T11:59:28.675Z,29.20
2018-05-03T12:01:56.919Z,27.40
2018-05-03T12:04:25.164Z,28.80
2018-05-03T12:06:53.411Z,28.70
2018-05-03T12:09:21.647Z,29.90
2018-05-03T12:11:50.326Z,29.10
2018-05-03T12:14:18.588Z,28.60
2018-05-03T12:16:46.828Z,28.90
2018-05-03T12:19:15.871Z,27.10
2018-05-03T12:21:44.115Z,27.10
2018-05-03T12:24:12.531Z,27.50
2018-05-03T12:26:40.783Z,28.10
2018-05-03T12:29:09.021Z,28.10
2018-05-03T12:31:37.265Z,28.70
2018-05-03T12:34:06.560Z,27.60
2018-05-03T12:36:34.819Z,27.40
2018-05-03T12:39:03.062Z,27.30
2018-05-03T12:41:33.000Z,28.10
2018-05-03T12:44:01.240Z,28.00
2018-05-03T12:46:29.471Z,27.20
2018-05-03T12:48:57.736Z,27.50
2018-05-03T12:51:25.979Z,27.90
2018-05-03T12:53:54.982Z,28.70
2018-05-03T12:56:23.653Z,28.70
2018-05-03T12:58:52.931Z,29.50
2018-05-03T13:01:21.176Z,28.90
2018-05-03T13:03:49.449Z,29.20
2018-05-03T13:06:17.723Z,29.00
2018-05-03T13:08:45.971Z,28.80
2018-05-03T13:11:14.238Z,26.80
2018-05-03T13:13:43.249Z,26.10
2018-05-03T13:16:11.487Z,26.10
2018-05-03T13:18:39.896Z,26.70
2018-05-03T13:21:09.708Z,25.00
2018-05-03T13:23:37.941Z,25.00
2018-05-03T13:26:06.194Z,25.60
2018-05-03T13:28:34.436Z,25.00
2018-05-03T13:31:03.456Z,24.70
2018-05-03T13:33:31.712Z,24.40
2018-05-03T13:36:00.731Z,24.40
2018-05-03T13:38:28.969Z,24.40
2018-05-03T13:40:57.295Z,24.20
2018-05-03T13:43:25.532Z,23.10
2018-05-03T13:45:54.591Z,22.90
2018-05-03T13:48:23.428Z,22.80
2018-05-03T13:50:51.699Z,23.40
2018-05-03T13:53:20.016Z,24.10
2018-05-03T13:55:48.992Z,23.10
2018-05-03T13:58:17.239Z,23.10
2018-05-03T14:00:46.388Z,22.40
2018-05-03T14:03:14.777Z,22.00
2018-05-03T14:05:43.257Z,22.80
2018-05-03T14:08:11.493Z,22.70
2018-05-03T14:10:39.887Z,21.40
2018-05-03T14:13:08.421Z,22.20
2018-05-03T14:15:36.636Z,22.00
2018-05-03T14:18:04.980Z,22.00
2018-05-03T14:20:33.225Z,21.60
2018-05-03T14:23:02.087Z,21.20
2018-05-03T14:25:31.399Z,21.80
2018-05-03T14:27:59.635Z,23.70
2018-05-03T14:30:27.875Z,23.80
2018-05-03T14:32:56.144Z,23.80
2018-05-03T14:35:24.408Z,22.40
2018-05-03T14:37:52.652Z,21.50
2018-05-03T14:40:21.480Z,20.10
2018-05-03T14:42:49.775Z,22.10
2018-05-03T14:45:18.049Z,21.80
2018-05-03T14:47:46.655Z,21.40
2018-05-03T14:50:15.183Z,22.00
2018-05-03T14:52:43.427Z,22.80
2018-05-03T14:55:11.792Z,24.20
2018-05-03T14:57:40.881Z,24.50
2018-05-03T15:00:09.245Z,24.50
2018-05-03T15:02:38.003Z,24.10
2018-05-03T15:05:06.296Z,25.00
2018-05-03T15:07:34.684Z,25.10
2018-05-03T15:10:03.223Z,23.50
2018-05-03T15:12:31.650Z,23.00
2018-05-03T15:14:59.878Z,23.00
2018-05-03T15:17:28.240Z,22.10
2018-05-03T15:19:57.244Z,23.20
2018-05-03T15:22:26.251Z,23.20
2018-05-03T15:24:54.596Z,23.20
2018-05-03T15:27:22.839Z,23.40
2018-05-03T15:29:51.080Z,21.60
2018-05-03T15:32:19.788Z,22.30
2018-05-03T15:34:48.042Z,21.20
2018-05-03T15:37:16.271Z,21.40
2018-05-03T15:39:44.531Z,21.10
2018-05-03T15:42:12.920Z,22.10
2018-05-03T15:44:41.243Z,21.50
2018-05-03T15:47:09.453Z,21.00
2018-05-03T15:49:37.752Z,22.00
2018-05-03T15:52:06.017Z,22.00
2018-05-03T15:54:34.331Z,22.40
2018-05-03T15:57:02.573Z,23.20
2018-05-03T15:59:30.847Z,22.40
2018-05-03T16:01:59.126Z,22.40
2018-05-03T16:04:28.023Z,22.50
2018-05-03T16:06:56.401Z,22.60
2018-05-03T16:09:24.814Z,22.40
2018-05-03T16:11:53.824Z,23.70
2018-05-03T16:14:24.143Z,23.10
2018-05-03T16:16:52.763Z,23.00
2018-05-03T16:19:21.068Z,23.80
2018-05-03T16:21:49.449Z,23.30
2018-05-03T16:24:17.886Z,23.20
2018-05-03T16:26:46.409Z,23.90
2018-05-03T16:29:16.015Z,24.00
2018-05-03T16:31:44.264Z,23.60
2018-05-03T16:34:12.776Z,23.20
2018-05-03T16:36:41.214Z,23.20
2018-05-03T16:39:09.863Z,23.60
2018-05-03T16:41:38.310Z,24.60
2018-05-03T16:44:07.044Z,24.70
2018-05-03T16:46:36.280Z,24.30
2018-05-03T16:49:04.986Z,24.30
2018-05-03T16:51:34.186Z,24.00
2018-05-03T16:54:02.432Z,24.70
2018-05-03T16:56:30.736Z,24.40
2018-05-03T16:59:00.052Z,25.40
2018-05-03T17:01:28.840Z,24.80
2018-05-03T17:03:58.024Z,24.30
2018-05-03T17:06:27.018Z,25.20
2018-05-03T17:08:55.427Z,25.20
2018-05-03T17:11:24.607Z,25.00
2018-05-03T17:13:52.847Z,24.90
2018-05-03T17:16:21.662Z,25.20
2018-05-03T17:18:49.879Z,24.90
2018-05-03T17:21:20.756Z,25.50
2018-05-03T17:23:49.444Z,25.40
2018-05-03T17:26:17.804Z,25.50
2018-05-03T17:28:47.105Z,25.80
2018-05-03T17:31:15.373Z,26.30
2018-05-03T17:33:43.912Z,26.30
2018-05-03T17:36:12.276Z,26.20
2018-05-03T17:38:40.776Z,25.90
2018-05-03T17:41:09.006Z,26.30
2018-05-03T17:43:38.555Z,26.80
2018-05-03T17:46:07.005Z,27.10
2018-05-03T17:48:35.512Z,27.50
2018-05-03T17:51:05.001Z,28.00
2018-05-03T17:53:33.887Z,28.50
2018-05-03T17:56:02.308Z,29.10
2018-05-03T17:58:30.756Z,29.40
2018-05-03T18:00:59.081Z,29.60
2018-05-03T18:03:29.327Z,30.50
2018-05-03T18:05:57.663Z,30.00
2018-05-03T18:08:26.980Z,30.20
2018-05-03T18:10:57.179Z,30.80
2018-05-03T18:13:25.551Z,30.60
2018-05-03T18:15:53.956Z,30.60
2018-05-03T18:18:24.544Z,31.90
2018-05-03T18:20:52.840Z,31.90
2018-05-03T18:23:21.257Z,31.50
2018-05-03T18:25:51.234Z,31.80
2018-05-03T18:28:20.481Z,31.80
2018-05-03T18:30:51.048Z,32.00
2018-05-03T18:33:19.424Z,32.00
2018-05-03T18:35:47.724Z,32.80
2018-05-03T18:38:16.129Z,33.20
2018-05-03T18:40:44.483Z,32.70
2018-05-03T18:43:13.788Z,32.30
2018-05-03T18:45:42.199Z,32.70
2018-05-03T18:48:15.160Z,33.60
2018-05-03T18:50:44.034Z,33.60
2018-05-03T18:53:12.736Z,33.80
2018-05-03T18:55:41.099Z,33.10
2018-05-03T18:58:09.363Z,34.30
2018-05-03T19:00:38.583Z,34.40
2018-05-03T19:03:06.976Z,34.30
2018-05-03T19:05:35.376Z,34.00
2018-05-03T19:08:04.789Z,35.80
2018-05-03T19:10:34.059Z,35.40
2018-05-03T19:13:04.929Z,35.30
2018-05-03T19:15:34.071Z,34.50
2018-05-03T19:18:02.460Z,35.00
2018-05-03T19:20:32.918Z,34.70
2018-05-03T19:23:01.256Z,34.90
2018-05-03T19:25:29.706Z,34.50
2018-05-03T19:27:58.163Z,35.50
2018-05-03T19:30:28.407Z,34.80
2018-05-03T19:32:56.745Z,34.70
2018-05-03T19:35:25.294Z,35.00
2018-05-03T19:37:53.478Z,35.80
2018-05-03T19:40:21.864Z,34.90
2018-05-03T19:42:50.331Z,35.20
2018-05-03T19:45:18.639Z,35.00
2018-05-03T19:47:46.916Z,35.30
2018-05-03T19:50:15.637Z,35.20
2018-05-03T19:52:43.842Z,35.20
2018-05-03T19:55:13.717Z,35.30
2018-05-03T19:57:42.821Z,36.10
2018-05-03T20:00:11.272Z,36.10
2018-05-03T20:02:39.487Z,35.80
2018-05-03T20:05:07.844Z,36.00
2018-05-03T20:07:36.851Z,36.00
2018-05-03T20:10:05.454Z,36.00
2018-05-03T20:12:33.704Z,36.10
2018-05-03T20:15:01.955Z,37.00
2018-05-03T20:17:30.363Z,36.30
2018-05-03T20:19:58.764Z,37.50
2018-05-03T20:22:27.089Z,36.60
2018-05-03T20:24:55.530Z,36.90
2018-05-03T20:27:24.521Z,37.40
2018-05-03T20:29:52.767Z,37.30
2018-05-03T20:32:21.204Z,37.30
2018-05-03T20:34:49.644Z,37.50
2018-05-03T20:37:17.968Z,37.50
2018-05-03T20:39:46.354Z,38.70
2018-05-03T20:42:15.056Z,38.40
2018-05-03T20:44:44.067Z,38.60
2018-05-03T20:47:13.316Z,38.20
2018-05-03T20:49:41.586Z,38.10
2018-05-03T20:52:10.726Z,38.20
2018-05-03T20:54:39.744Z,39.10
2018-05-03T20:57:08.095Z,39.10
2018-05-03T20:59:37.115Z,39.30
2018-05-03T21:02:07.284Z,39.30
2018-05-03T21:04:36.003Z,38.70
2018-05-03T21:07:05.023Z,39.00
2018-05-03T21:09:33.251Z,38.90
2018-05-03T21:12:03.027Z,40.00
2018-05-03T21:14:31.420Z,40.00
2018-05-03T21:16:59.657Z,40.10
2018-05-03T21:19:27.947Z,41.20
2018-05-03T21:21:56.319Z,41.00
2018-05-03T21:24:24.739Z,40.50
2018-05-03T21:26:53.308Z,40.50
2018-05-03T21:29:21.559Z,40.40
2018-05-03T21:31:49.995Z,41.20
2018-05-03T21:34:18.932Z,40.10
2018-05-03T21:36:47.159Z,40.00
2018-05-03T21:39:15.402Z,40.10
2018-05-03T21:41:43.930Z,41.00
2018-05-03T21:44:12.226Z,41.60
2018-05-03T21:46:41.255Z,41.00
2018-05-03T21:49:09.947Z,41.00
2018-05-03T21:51:38.324Z,40.80
2018-05-03T21:54:06.572Z,41.00
2018-05-03T21:56:35.961Z,41.20
2018-05-03T21:59:04.975Z,42.60
2018-05-03T22:01:36.365Z,42.60
2018-05-03T22:04:04.664Z,41.80
2018-05-03T22:06:35.240Z,42.10
2018-05-03T22:09:03.487Z,42.10
2018-05-03T22:11:32.591Z,42.80
2018-05-03T22:14:01.443Z,41.90
2018-05-03T22:16:30.060Z,42.60
2018-05-03T22:18:59.092Z,44.00
2018-05-03T22:21:27.335Z,43.40
2018-05-03T22:23:55.774Z,42.70
2018-05-03T22:26:24.775Z,41.60
2018-05-03T22:28:53.027Z,41.80
2018-05-03T22:31:21.269Z,42.30
2018-05-03T22:33:50.911Z,41.70
2018-05-03T22:36:19.155Z,41.70
2018-05-03T22:38:47.392Z,41.40
2018-05-03T22:41:15.656Z,42.30
2018-05-03T22:43:44.722Z,42.60
2018-05-03T22:46:12.968Z,43.30
2018-05-03T22:48:41.238Z,42.00
2018-05-03T22:51:10.327Z,42.10
2018-05-03T22:53:38.563Z,42.10
2018-05-03T22:56:07.927Z,43.30
2018-05-03T22:58:36.236Z,42.40
2018-05-03T23:01:04.481Z,42.10
2018-05-03T23:03:32.788Z,41.90
2018-05-03T23:06:01.532Z,42.10
2018-05-03T23:08:29.775Z,41.90
2018-05-03T23:10:58.291Z,42.60
2018-05-03T23:13:26.534Z,42.40
2018-05-03T23:15:54.771Z,42.70
2018-05-03T23:18:23.635Z,42.20
2018-05-03T23:20:51.879Z,42.90
2018-05-03T23:23:20.119Z,42.30
2018-05-03T23:25:48.378Z,42.50
2018-05-03T23:28:16.619Z,41.60
2018-05-03T23:30:44.851Z,41.50
2018-05-03T23:33:13.119Z,42.80
2018-05-03T23:35:41.355Z,42.10
2018-05-03T23:38:10.364Z,42.10
2018-05-03T23:40:38.844Z,42.10
2018-05-03T23:43:07.081Z,41.80
2018-05-03T23:45:35.535Z,42.20
2018-05-03T23:48:03.814Z,41.60
2018-05-03T23:50:32.978Z,41.80
2018-05-03T23:53:01.221Z,41.40
2018-05-03T23:55:29.485Z,41.40
2018-05-03T23:57:57.720Z,41.20
